Time;durP1;ratioP1;P1;durP2;ratioP2;P2;SDS_P1;SDS_P2;PMS_P1;PMS_P2;Temp;Humidity;BMP_temperature;BMP_pressure;BME280_temperature;BME280_humidity;BME280_pressure;Samples;Min_cycle;Max_cycle;Signal;HPM_P1;HPM_P2
2021/03/10 12:57:17;;;;;;;15.23;9.93;;;;;;;;;;5129167;27;20322;-77
2021/03/10 12:59:43;;;;;;;14.18;9.40;;;;;;;;;;5127387;28;20104;-77
2021/03/10 13:02:09;;;;;;;12.18;8.30;;;;;;;;;;5127991;28;20624;-77
2021/03/10 13:04:35;;;;;;;13.02;8.10;;;;;;;;;;5120900;28;20027;-77
2021/03/10 13:07:01;;;;;;;13.77;8.10;;;;;;;;;;5127296;28;20039;-76
2021/03/10 13:09:27;;;;;;;13.48;9.15;;;;;;;;;;5123679;28;20112;-76
2021/03/10 13:11:53;;;;;;;13.18;8.18;;;;;;;;;;5122364;28;20081;-77
2021/03/10 13:14:19;;;;;;;13.32;8.30;;;;;;;;;;5128614;28;20028;-77
2021/03/10 13:16:45;;;;;;;13.65;8.32;;;;;;;;;;5128882;28;20030;-76
2021/03/10 13:19:11;;;;;;;13.82;8.80;;;;;;;;;;5129343;27;20416;-77
2021/03/10 13:21:37;;;;;;;13.70;7.68;;;;;;;;;;5128373;28;20028;-76
2021/03/10 13:24:03;;;;;;;11.75;7.35;;;;;;;;;;5126880;28;20600;-76
2021/03/10 13:26:29;;;;;;;10.70;7.45;;;;;;;;;;5122790;28;20031;-77
2021/03/10 13:28:55;;;;;;;11.18;6.43;;;;;;;;;;5128622;28;20023;-77
2021/03/10 13:31:22;;;;;;;11.82;7.20;;;;;;;;;;5128002;28;20469;-76
2021/03/10 13:33:48;;;;;;;10.68;7.13;;;;;;;;;;5126217;28;20023;-77
2021/03/10 13:36:14;;;;;;;11.52;7.13;;;;;;;;;;5128235;27;20034;-77
2021/03/10 13:38:40;;;;;;;11.05;7.20;;;;;;;;;;5128925;27;20135;-77
2021/03/10 13:41:07;;;;;;;15.38;7.15;;;;;;;;;;5128649;27;20038;-76
2021/03/10 13:43:33;;;;;;;10.20;6.93;;;;;;;;;;5107335;28;20477;-77
2021/03/10 13:46:00;;;;;;;10.60;7.07;;;;;;;;;;5127150;28;20084;-77
2021/03/10 13:48:26;;;;;;;9.20;6.63;;;;;;;;;;5128568;27;20029;-77
2021/03/10 13:50:53;;;;;;;9.48;6.05;;;;;;;;;;5124240;27;20027;-77
2021/03/10 13:53:19;;;;;;;11.02;6.25;;;;;;;;;;5123990;28;20526;-76
2021/03/10 13:55:45;;;;;;;12.70;7.28;;;;;;;;;;5121988;28;20035;-76
2021/03/10 13:58:11;;;;;;;11.18;7.28;;;;;;;;;;5122113;27;20449;-76
2021/03/10 14:00:38;;;;;;;12.63;7.43;;;;;;;;;;5123215;28;20063;-76
2021/03/10 14:03:04;;;;;;;12.50;7.80;;;;;;;;;;5122685;27;20023;-77
2021/03/10 14:05:30;;;;;;;11.10;7.60;;;;;;;;;;5119288;28;20024;-77
2021/03/10 14:07:56;;;;;;;13.90;8.70;;;;;;;;;;5114132;28;20535;-77
2021/03/10 14:10:22;;;;;;;15.95;8.90;;;;;;;;;;5106780;28;20080;-76
2021/03/10 14:12:49;;;;;;;15.18;9.68;;;;;;;;;;5110136;28;20077;-76
2021/03/10 14:15:17;;;;;;;13.43;9.18;;;;;;;;;;5110047;28;20031;-76
2021/03/10 14:17:43;;;;;;;15.75;9.15;;;;;;;;;;5109711;28;20496;-76
2021/03/10 14:20:10;;;;;;;14.10;9.38;;;;;;;;;;5109582;28;20035;-76
2021/03/10 14:22:37;;;;;;;16.42;9.43;;;;;;;;;;5109218;28;20034;-76
2021/03/10 14:25:03;;;;;;;13.63;8.98;;;;;;;;;;5106864;28;20430;-76
2021/03/10 14:27:29;;;;;;;13.23;8.73;;;;;;;;;;5105942;28;20031;-76
2021/03/10 14:29:55;;;;;;;15.75;9.02;;;;;;;;;;5108190;28;20095;-76
2021/03/10 14:32:21;;;;;;;14.25;8.15;;;;;;;;;;5109103;28;20030;-76
2021/03/10 14:34:47;;;;;;;14.15;8.20;;;;;;;;;;5107250;28;20176;-76
2021/03/10 14:37:13;;;;;;;11.55;7.80;;;;;;;;;;5106941;28;20853;-76
2021/03/10 14:39:39;;;;;;;11.07;7.38;;;;;;;;;;5108748;28;20106;-76
2021/03/10 14:42:05;;;;;;;11.40;7.63;;;;;;;;;;5109523;28;20149;-75
2021/03/10 14:44:31;;;;;;;14.30;8.57;;;;;;;;;;5106171;28;20051;-75
2021/03/10 14:46:57;;;;;;;13.38;7.55;;;;;;;;;;5109864;28;20116;-75
2021/03/10 14:49:23;;;;;;;11.73;7.13;;;;;;;;;;5102925;28;20031;-76
2021/03/10 14:51:49;;;;;;;18.05;9.60;;;;;;;;;;5105723;28;20408;-77
2021/03/10 14:54:16;;;;;;;15.10;8.10;;;;;;;;;;5106748;28;20031;-76
2021/03/10 14:56:42;;;;;;;10.57;7.18;;;;;;;;;;5108967;28;20046;-74
2021/03/10 14:59:08;;;;;;;12.15;7.13;;;;;;;;;;5105997;28;20029;-75
2021/03/10 15:01:34;;;;;;;11.50;7.75;;;;;;;;;;5104890;28;20031;-75
2021/03/10 15:04:00;;;;;;;10.93;7.18;;;;;;;;;;5107018;28;20027;-75
2021/03/10 15:06:26;;;;;;;8.68;6.20;;;;;;;;;;5107928;28;20034;-75
2021/03/10 15:08:52;;;;;;;11.43;7.13;;;;;;;;;;5102642;28;20123;-75
2021/03/10 15:11:18;;;;;;;10.15;7.03;;;;;;;;;;5108002;28;20102;-75
2021/03/10 15:13:44;;;;;;;12.93;8.15;;;;;;;;;;5108138;28;20023;-75
2021/03/10 15:16:10;;;;;;;13.50;7.43;;;;;;;;;;5107841;28;20085;-75
2021/03/10 15:18:36;;;;;;;10.38;7.20;;;;;;;;;;5103871;28;20031;-75
2021/03/10 15:21:02;;;;;;;10.73;6.60;;;;;;;;;;5105589;28;20020;-75
2021/03/10 15:23:28;;;;;;;11.90;7.00;;;;;;;;;;5107774;27;20110;-75
2021/03/10 15:25:54;;;;;;;11.85;7.53;;;;;;;;;;5105020;28;20062;-75
2021/03/10 15:28:20;;;;;;;11.98;6.85;;;;;;;;;;5108722;28;20027;-75
2021/03/10 15:30:46;;;;;;;11.07;7.30;;;;;;;;;;5089731;28;20054;-75
2021/03/10 15:33:12;;;;;;;10.88;7.10;;;;;;;;;;5108064;28;20024;-76
2021/03/10 15:35:38;;;;;;;12.93;7.45;;;;;;;;;;5108287;28;20063;-75
2021/03/10 15:38:05;;;;;;;13.13;7.35;;;;;;;;;;5108352;28;20019;-75
2021/03/10 15:40:31;;;;;;;11.75;7.13;;;;;;;;;;5107976;28;21094;-75
2021/03/10 15:42:57;;;;;;;11.70;6.80;;;;;;;;;;5107590;28;20102;-75
2021/03/10 15:45:23;;;;;;;9.23;6.35;;;;;;;;;;5105412;28;20456;-75
2021/03/10 15:47:49;;;;;;;10.02;6.53;;;;;;;;;;5103744;28;20036;-75
2021/03/10 15:50:16;;;;;;;9.88;6.57;;;;;;;;;;5101482;28;20020;-75
2021/03/10 15:52:42;;;;;;;12.23;7.18;;;;;;;;;;5108116;28;20035;-75
2021/03/10 15:55:09;;;;;;;10.05;5.97;;;;;;;;;;5107265;28;20110;-75
2021/03/10 15:57:35;;;;;;;11.80;6.68;;;;;;;;;;5099743;28;20502;-75
2021/03/10 16:00:02;;;;;;;10.35;6.05;;;;;;;;;;5108096;28;20024;-75
2021/03/10 16:02:28;;;;;;;10.88;6.25;;;;;;;;;;5106936;28;20015;-77
2021/03/10 16:04:54;;;;;;;9.40;6.20;;;;;;;;;;5106961;28;20023;-75
2021/03/10 16:07:20;;;;;;;9.13;6.43;;;;;;;;;;5101352;28;20032;-75
2021/03/10 16:09:47;;;;;;;11.55;6.18;;;;;;;;;;5098104;28;20035;-76
2021/03/10 16:12:13;;;;;;;9.23;5.95;;;;;;;;;;5104467;28;20068;-75
2021/03/10 16:14:39;;;;;;;9.43;6.10;;;;;;;;;;5106246;28;20089;-75
2021/03/10 16:17:05;;;;;;;9.82;6.20;;;;;;;;;;5106368;28;20020;-76
2021/03/10 16:19:32;;;;;;;9.90;6.40;;;;;;;;;;5107631;28;20145;-76
2021/03/10 16:21:58;;;;;;;13.82;5.90;;;;;;;;;;5107287;28;20472;-76
2021/03/10 16:24:29;;;;;;;12.52;6.47;;;;;;;;;;5106590;28;20024;-76
2021/03/10 16:26:55;;;;;;;10.50;5.90;;;;;;;;;;5105799;28;20028;-76
2021/03/10 16:29:22;;;;;;;10.43;6.78;;;;;;;;;;5107776;28;20387;-76
2021/03/10 16:31:48;;;;;;;11.73;6.40;;;;;;;;;;5107749;28;20024;-76
2021/03/10 16:34:14;;;;;;;9.57;6.50;;;;;;;;;;5107626;28;20031;-76
2021/03/10 16:36:42;;;;;;;10.02;6.32;;;;;;;;;;5097479;28;20077;-77
2021/03/10 16:39:08;;;;;;;9.95;6.28;;;;;;;;;;5108675;28;20026;-76
2021/03/10 16:41:34;;;;;;;12.00;6.47;;;;;;;;;;5106510;28;20007;-76
2021/03/10 16:44:00;;;;;;;9.60;5.82;;;;;;;;;;5096137;28;20020;-75
2021/03/10 16:46:27;;;;;;;10.48;5.97;;;;;;;;;;5091392;28;20103;-76
2021/03/10 16:48:53;;;;;;;9.82;6.05;;;;;;;;;;5091311;28;20446;-76
2021/03/10 16:51:19;;;;;;;11.73;6.40;;;;;;;;;;5090904;28;20036;-76
2021/03/10 16:53:46;;;;;;;12.32;6.38;;;;;;;;;;5090039;28;20504;-77
2021/03/10 16:56:12;;;;;;;10.45;5.88;;;;;;;;;;5090938;28;20020;-77
2021/03/10 16:58:39;;;;;;;9.75;5.30;;;;;;;;;;5089967;28;20036;-76
2021/03/10 17:01:05;;;;;;;9.88;5.75;;;;;;;;;;5092354;28;20154;-77
2021/03/10 17:03:32;;;;;;;10.23;5.88;;;;;;;;;;5088915;28;20032;-76
2021/03/10 17:05:58;;;;;;;8.80;6.20;;;;;;;;;;5097226;28;20020;-76
2021/03/10 17:08:24;;;;;;;10.77;5.53;;;;;;;;;;5111355;28;20032;-76
2021/03/10 17:10:50;;;;;;;11.48;6.22;;;;;;;;;;5109319;28;20031;-77
2021/03/10 17:13:16;;;;;;;8.07;5.68;;;;;;;;;;5110184;28;20020;-76
2021/03/10 17:15:42;;;;;;;10.43;5.88;;;;;;;;;;5111115;28;20031;-76
2021/03/10 17:18:08;;;;;;;12.82;6.05;;;;;;;;;;5111080;28;20030;-76
2021/03/10 17:20:34;;;;;;;11.32;6.80;;;;;;;;;;5111144;28;20035;-76
2021/03/10 17:23:00;;;;;;;12.52;6.65;;;;;;;;;;5093532;28;20028;-76
2021/03/10 17:25:26;;;;;;;10.55;7.93;;;;;;;;;;5090830;28;20043;-77
2021/03/10 17:27:52;;;;;;;14.90;8.05;;;;;;;;;;5090841;28;20028;-76
2021/03/10 17:30:18;;;;;;;13.77;10.95;;;;;;;;;;5090697;28;20032;-76
2021/03/10 17:32:45;;;;;;;11.95;8.68;;;;;;;;;;5088468;28;20073;-76
2021/03/10 17:35:11;;;;;;;12.73;8.27;;;;;;;;;;5090321;28;20032;-75
2021/03/10 17:37:37;;;;;;;13.32;8.95;;;;;;;;;;5103416;28;20055;-76
2021/03/10 17:40:04;;;;;;;19.52;12.43;;;;;;;;;;5110999;28;20031;-76
2021/03/10 17:42:30;;;;;;;18.10;11.50;;;;;;;;;;5098038;28;20561;-76
2021/03/10 17:44:57;;;;;;;18.85;10.60;;;;;;;;;;5114901;28;20016;-76
2021/03/10 17:47:23;;;;;;;13.43;8.82;;;;;;;;;;5114748;28;20020;-76
2021/03/10 17:49:49;;;;;;;15.55;7.97;;;;;;;;;;5113661;28;20030;-75
2021/03/10 17:52:15;;;;;;;11.07;6.90;;;;;;;;;;5114278;28;20434;-75
2021/03/10 17:54:41;;;;;;;13.13;7.70;;;;;;;;;;5113831;28;20031;-76
2021/03/10 17:57:07;;;;;;;14.85;8.15;;;;;;;;;;5115249;28;20027;-76
2021/03/10 17:59:33;;;;;;;18.67;10.05;;;;;;;;;;5114177;28;20027;-77
2021/03/10 18:01:59;;;;;;;16.13;9.63;;;;;;;;;;5115878;28;20030;-79
2021/03/10 18:04:25;;;;;;;19.52;10.25;;;;;;;;;;5098608;28;20411;-79
2021/03/10 18:06:51;;;;;;;15.77;9.35;;;;;;;;;;5096195;28;20036;-79
2021/03/10 18:09:17;;;;;;;16.63;9.32;;;;;;;;;;5094281;28;20028;-79
2021/03/10 18:11:43;;;;;;;15.07;10.02;;;;;;;;;;5090251;28;20442;-77
2021/03/10 18:14:09;;;;;;;17.33;10.65;;;;;;;;;;5092756;28;20024;-76
2021/03/10 18:16:36;;;;;;;19.45;10.90;;;;;;;;;;5092591;28;20020;-78
2021/03/10 18:19:02;;;;;;;16.83;9.15;;;;;;;;;;5091288;28;20173;-77
2021/03/10 18:21:28;;;;;;;15.38;8.07;;;;;;;;;;5090289;28;20497;-77
2021/03/10 18:23:54;;;;;;;17.67;8.82;;;;;;;;;;5096380;28;20412;-77
2021/03/10 18:26:20;;;;;;;14.57;8.25;;;;;;;;;;5110361;28;20039;-77
2021/03/10 18:28:46;;;;;;;12.75;7.65;;;;;;;;;;5087967;28;20067;-77
2021/03/10 18:31:12;;;;;;;13.82;7.40;;;;;;;;;;5110021;28;20711;-77
2021/03/10 18:33:38;;;;;;;16.40;9.45;;;;;;;;;;5109139;28;20066;-77
2021/03/10 18:36:04;;;;;;;14.70;9.98;;;;;;;;;;5109189;28;20484;-79
2021/03/10 18:38:30;;;;;;;16.70;8.65;;;;;;;;;;5111551;28;20515;-79
2021/03/10 18:40:56;;;;;;;15.82;9.20;;;;;;;;;;5108248;28;20441;-79
2021/03/10 18:43:22;;;;;;;16.85;9.48;;;;;;;;;;5112198;28;20024;-79
2021/03/10 18:45:48;;;;;;;17.13;8.98;;;;;;;;;;5111500;28;20027;-78
2021/03/10 18:48:14;;;;;;;14.70;9.30;;;;;;;;;;5110313;28;20030;-76
2021/03/10 18:50:42;;;;;;;15.55;8.80;;;;;;;;;;5109697;28;20057;-77
2021/03/10 18:53:08;;;;;;;16.45;9.38;;;;;;;;;;5104068;28;20115;-76
